createdAt,value
2023-05-22T00:03:49.004Z,17.9
2023-05-22T00:19:12.311Z,17.9
2023-05-22T00:34:35.601Z,17.6
2023-05-22T00:49:58.898Z,17.3
2023-05-22T01:05:22.202Z,17.1
2023-05-22T01:20:45.490Z,17
2023-05-22T01:36:08.795Z,16.7
2023-05-22T01:51:32.090Z,16.6
2023-05-22T02:06:55.372Z,16.7
2023-05-22T02:22:18.676Z,16.6
2023-05-22T02:37:41.978Z,16.5
2023-05-22T02:53:05.224Z,16.2
2023-05-22T03:08:28.477Z,16
2023-05-22T03:23:50.748Z,15.8
2023-05-22T03:39:14.012Z,15.7
2023-05-22T03:54:37.250Z,15.8
2023-05-22T04:10:00.508Z,15.9
2023-05-22T04:25:23.755Z,16.1
2023-05-22T04:40:47.018Z,16.5
2023-05-22T04:56:10.282Z,16.8
2023-05-22T05:11:33.521Z,17.1
2023-05-22T05:26:56.773Z,17.3
2023-05-22T05:42:20.028Z,17.8
2023-05-22T05:57:43.293Z,18.2
2023-05-22T06:13:06.528Z,18.9
2023-05-22T06:28:29.786Z,19.5
2023-05-22T06:43:52.069Z,19.8
2023-05-22T06:59:15.316Z,20.1
2023-05-22T07:14:38.574Z,20.4
2023-05-22T07:30:01.821Z,20.8
2023-05-22T07:45:25.083Z,21.4
2023-05-22T07:46:48.496Z,21.4
2023-05-22T07:48:11.917Z,21.5
2023-05-22T07:49:35.319Z,21.5
2023-05-22T07:50:58.717Z,21.6
2023-05-22T07:52:22.136Z,21.7
2023-05-22T07:53:45.553Z,21.8
2023-05-22T07:55:08.955Z,22
2023-05-22T07:56:32.355Z,22
2023-05-22T07:57:54.796Z,22.1
2023-05-22T07:59:18.195Z,22.3
2023-05-22T08:00:41.610Z,22.4
2023-05-22T08:02:05.014Z,22.5
2023-05-22T08:03:28.407Z,22.5
2023-05-22T08:04:51.820Z,22.6
2023-05-22T08:06:14.261Z,22.6
2023-05-22T08:07:37.664Z,22.7
2023-05-22T08:09:01.064Z,22.8
2023-05-22T08:10:24.485Z,22.9
2023-05-22T08:11:47.877Z,22.9
2023-05-22T08:13:11.295Z,23
2023-05-22T08:14:34.711Z,23
2023-05-22T08:15:58.119Z,23
2023-05-22T08:17:21.512Z,23.1
2023-05-22T08:18:44.919Z,23
2023-05-22T08:20:08.334Z,23
2023-05-22T08:21:31.753Z,23
2023-05-22T08:22:55.152Z,23
2023-05-22T08:24:17.574Z,23
2023-05-22T08:25:40.984Z,23.1
2023-05-22T08:27:04.383Z,23.2
2023-05-22T08:28:27.803Z,23.2
2023-05-22T08:29:51.213Z,23.3
2023-05-22T08:31:14.601Z,23.4
2023-05-22T08:32:38.013Z,23.5
2023-05-22T08:34:01.416Z,23.7
2023-05-22T08:35:24.834Z,23.7
2023-05-22T08:36:48.240Z,23.8
2023-05-22T08:38:11.644Z,24
2023-05-22T08:39:35.057Z,24.1
2023-05-22T08:40:58.458Z,24.2
2023-05-22T08:42:20.879Z,24.4
2023-05-22T08:43:44.293Z,24.5
2023-05-22T08:45:07.709Z,24.6
2023-05-22T08:46:31.104Z,24.8
2023-05-22T08:47:54.526Z,24.9
2023-05-22T08:49:17.927Z,25
2023-05-22T08:50:41.346Z,25
2023-05-22T08:52:04.759Z,25
2023-05-22T08:53:28.162Z,25.1
2023-05-22T08:54:51.573Z,25.4
2023-05-22T08:56:14.963Z,25.6
2023-05-22T08:57:38.383Z,25.6
2023-05-22T08:59:01.788Z,25.7
2023-05-22T09:00:24.210Z,25.8
2023-05-22T09:01:47.617Z,26
2023-05-22T09:03:11.030Z,26.1
2023-05-22T09:04:34.439Z,26.1
2023-05-22T09:05:57.834Z,26.3
2023-05-22T09:07:21.247Z,26.3
2023-05-22T09:08:44.662Z,26.3
2023-05-22T09:10:08.058Z,26.3
2023-05-22T09:11:31.462Z,26.4
2023-05-22T09:12:54.877Z,26.5
2023-05-22T09:14:18.298Z,26.6
2023-05-22T09:15:41.709Z,26.8
2023-05-22T09:17:05.109Z,26.8
2023-05-22T09:18:27.540Z,27
2023-05-22T09:19:50.956Z,27.1
2023-05-22T09:21:14.361Z,27.1
2023-05-22T09:22:37.773Z,27.2
2023-05-22T09:24:01.162Z,27.4
2023-05-22T09:25:24.587Z,27.5
2023-05-22T09:26:48.000Z,27.4
2023-05-22T09:28:11.403Z,27.3
2023-05-22T09:29:34.806Z,27.4
2023-05-22T09:30:58.208Z,27.6
2023-05-22T09:32:21.617Z,27.6
2023-05-22T09:33:45.042Z,27.7
2023-05-22T09:35:08.440Z,27.6
2023-05-22T09:36:30.870Z,27.8
2023-05-22T09:37:54.275Z,27.9
2023-05-22T09:39:17.679Z,28
2023-05-22T09:40:41.092Z,27.9
2023-05-22T09:42:04.504Z,27.9
2023-05-22T09:43:27.919Z,27.8
2023-05-22T09:44:51.318Z,27.9
2023-05-22T09:46:14.723Z,27.8
2023-05-22T09:47:38.150Z,27.8
2023-05-22T09:49:01.551Z,27.7
2023-05-22T09:50:24.967Z,27.7
2023-05-22T09:51:48.373Z,28
2023-05-22T09:53:11.777Z,28.2
2023-05-22T09:54:34.198Z,28.4
2023-05-22T09:55:57.618Z,28.3
2023-05-22T09:57:21.031Z,28.4
2023-05-22T09:58:44.432Z,28.4
2023-05-22T10:00:07.852Z,28.4
2023-05-22T10:01:31.257Z,28.5
2023-05-22T10:02:54.674Z,28.6
2023-05-22T10:04:18.084Z,28.8
2023-05-22T10:05:41.485Z,28.7
2023-05-22T10:07:04.893Z,28.8
2023-05-22T10:08:28.308Z,28.7
2023-05-22T10:09:51.707Z,28.8
2023-05-22T10:11:15.123Z,28.9
2023-05-22T10:12:37.554Z,29
2023-05-22T10:14:00.965Z,29
2023-05-22T10:15:24.367Z,29.1
2023-05-22T10:16:47.772Z,29.1
2023-05-22T10:18:11.193Z,29.1
2023-05-22T10:19:34.590Z,28.9
2023-05-22T10:20:57.999Z,28.8
2023-05-22T10:22:21.418Z,28.6
2023-05-22T10:23:44.825Z,28.7
2023-05-22T10:25:08.221Z,28.8
2023-05-22T10:26:31.633Z,28.8
2023-05-22T10:27:55.053Z,28.9
2023-05-22T10:29:18.445Z,28.6
2023-05-22T10:30:40.874Z,28.4
2023-05-22T10:32:04.293Z,28.3
2023-05-22T10:33:27.700Z,28
2023-05-22T10:34:51.102Z,27.7
2023-05-22T10:36:14.511Z,27.5
2023-05-22T10:37:37.924Z,27.4
2023-05-22T10:39:01.340Z,27.3
2023-05-22T10:40:24.740Z,27.3
2023-05-22T10:41:48.155Z,27.3
2023-05-22T10:43:11.561Z,27.2
2023-05-22T10:44:34.976Z,27.1
2023-05-22T10:45:58.378Z,27.1
2023-05-22T10:47:21.802Z,27
2023-05-22T10:48:44.227Z,26.8
2023-05-22T10:50:07.632Z,26.9
2023-05-22T10:51:31.040Z,26.9
2023-05-22T10:52:54.458Z,27
2023-05-22T10:54:17.855Z,27.1
2023-05-22T10:55:41.266Z,27.1
2023-05-22T10:57:04.689Z,27.1
2023-05-22T10:58:28.089Z,27.1
2023-05-22T10:59:51.505Z,27.3
2023-05-22T11:01:14.909Z,27.4
2023-05-22T11:02:38.327Z,27.4
2023-05-22T11:04:01.723Z,27.3
2023-05-22T11:05:25.130Z,27.5
2023-05-22T11:06:47.570Z,27.7
2023-05-22T11:08:10.976Z,27.8
2023-05-22T11:09:34.369Z,28
2023-05-22T11:10:57.782Z,28.1
2023-05-22T11:12:21.195Z,28.5
2023-05-22T11:13:44.613Z,28.4
2023-05-22T11:15:08.013Z,28.6
2023-05-22T11:16:31.421Z,28.8
2023-05-22T11:17:54.822Z,28.9
2023-05-22T11:19:18.241Z,29
2023-05-22T11:20:41.651Z,29.2
2023-05-22T11:22:05.049Z,29.3
2023-05-22T11:23:28.000Z,29.6
2023-05-22T11:24:50.891Z,29.4
2023-05-22T11:26:14.302Z,29.4
2023-05-22T11:27:37.699Z,29.4
2023-05-22T11:29:01.114Z,29.1
2023-05-22T11:30:24.538Z,28.9
2023-05-22T11:31:47.944Z,29
2023-05-22T11:33:11.338Z,29.1
2023-05-22T11:34:34.774Z,29.1
2023-05-22T11:35:58.186Z,28.9
2023-05-22T11:37:21.591Z,28.8
2023-05-22T11:38:45.004Z,28.8
2023-05-22T11:40:08.393Z,28.8
2023-05-22T11:41:31.815Z,28.8
2023-05-22T11:42:54.232Z,28.9
2023-05-22T11:44:17.657Z,29.1
2023-05-22T11:45:41.049Z,29.3
2023-05-22T11:47:04.477Z,29.5
2023-05-22T11:48:27.892Z,29.4
2023-05-22T11:49:51.283Z,29.6
2023-05-22T11:51:14.707Z,29.6
2023-05-22T11:52:38.105Z,29.8
2023-05-22T11:54:01.527Z,30
2023-05-22T11:55:24.929Z,30.2
2023-05-22T11:56:48.333Z,30.2
2023-05-22T11:58:11.761Z,30.2
2023-05-22T11:59:35.166Z,30.1
2023-05-22T12:00:57.588Z,30.2
2023-05-22T12:02:20.990Z,30.4
2023-05-22T12:03:44.399Z,30.4
2023-05-22T12:05:07.815Z,30.5
2023-05-22T12:06:31.213Z,30.5
2023-05-22T12:07:54.633Z,30.5
2023-05-22T12:09:18.028Z,30.7
2023-05-22T12:10:41.440Z,30.5
2023-05-22T12:12:04.855Z,30.5
2023-05-22T12:13:28.275Z,30.5
2023-05-22T12:14:51.667Z,30.5
2023-05-22T12:16:15.091Z,30.5
2023-05-22T12:17:38.000Z,30.4
2023-05-22T12:19:00.921Z,30.6
2023-05-22T12:20:24.324Z,30.5
2023-05-22T12:21:47.741Z,30.3
2023-05-22T12:23:11.135Z,30.3
2023-05-22T12:24:34.551Z,30.3
2023-05-22T12:25:57.956Z,30.2
2023-05-22T12:27:21.365Z,30.1
2023-05-22T12:28:44.772Z,30.2
2023-05-22T12:30:08.172Z,30.2
2023-05-22T12:31:31.578Z,30.4
2023-05-22T12:32:55.001Z,30.5
2023-05-22T12:34:18.415Z,30.4
2023-05-22T12:35:41.814Z,30.2
2023-05-22T12:37:04.230Z,30.3
2023-05-22T12:38:27.645Z,30.3
2023-05-22T12:39:51.060Z,30.3
2023-05-22T12:41:14.465Z,30.4
2023-05-22T12:42:37.872Z,30.5
2023-05-22T12:44:01.290Z,30.4
2023-05-22T12:45:23.714Z,30.3
2023-05-22T12:46:47.124Z,30.2
2023-05-22T12:48:10.527Z,30.4
2023-05-22T12:49:33.933Z,30.3
2023-05-22T12:50:57.351Z,30.1
2023-05-22T12:52:20.756Z,30.3
2023-05-22T12:53:44.163Z,30.4
2023-05-22T12:55:07.573Z,30.2
2023-05-22T12:56:30.984Z,30
2023-05-22T12:57:54.389Z,29.7
2023-05-22T12:59:17.803Z,29.7
2023-05-22T13:00:41.213Z,29.8
2023-05-22T13:02:04.614Z,30
2023-05-22T13:03:27.038Z,30.2
2023-05-22T13:04:50.445Z,30.2
2023-05-22T13:06:13.847Z,30.3
2023-05-22T13:07:37.259Z,30.3
2023-05-22T13:09:00.667Z,30.5
2023-05-22T13:10:24.087Z,30.7
2023-05-22T13:11:47.495Z,30.6
2023-05-22T13:13:10.887Z,30.4
2023-05-22T13:14:34.309Z,30.4
2023-05-22T13:15:57.710Z,30.4
2023-05-22T13:17:21.127Z,30.6
2023-05-22T13:18:44.534Z,30.7
2023-05-22T13:20:07.953Z,30.6
2023-05-22T13:21:30.375Z,30.7
2023-05-22T13:22:53.787Z,30.8
2023-05-22T13:24:17.188Z,30.7
2023-05-22T13:25:40.608Z,30.8
2023-05-22T13:27:04.009Z,30.7
2023-05-22T13:28:27.406Z,30.7
2023-05-22T13:29:50.811Z,30.8
2023-05-22T13:31:14.227Z,30.8
2023-05-22T13:34:01.040Z,30.5
2023-05-22T13:35:24.448Z,30.6
2023-05-22T13:36:47.868Z,30.6
2023-05-22T13:38:11.270Z,30.6
2023-05-22T13:39:33.712Z,30.5
2023-05-22T13:40:57.120Z,30.5
2023-05-22T13:42:20.523Z,30.6
2023-05-22T13:43:43.934Z,30.7
2023-05-22T13:46:30.756Z,30.8
2023-05-22T13:47:54.164Z,30.9
2023-05-22T13:49:17.571Z,30.9
2023-05-22T13:50:40.969Z,31
2023-05-22T13:52:04.379Z,31.1
2023-05-22T13:53:27.779Z,31
2023-05-22T13:54:51.204Z,30.8
2023-05-22T13:56:14.619Z,30.6
2023-05-22T13:57:37.042Z,30.8
2023-05-22T13:59:00.441Z,30.8
2023-05-22T14:00:23.854Z,30.9
2023-05-22T14:01:47.268Z,30.9
2023-05-22T14:03:10.666Z,30.9
2023-05-22T14:04:34.081Z,30.8
2023-05-22T14:05:57.491Z,30.7
2023-05-22T14:07:20.907Z,30.6
2023-05-22T14:08:44.317Z,30.4
2023-05-22T14:10:07.727Z,29.9
2023-05-22T14:11:31.137Z,29.5
2023-05-22T14:12:54.556Z,29.5
2023-05-22T14:14:17.966Z,29.4
2023-05-22T14:15:40.386Z,29.6
2023-05-22T14:17:03.799Z,29.6
2023-05-22T14:18:27.211Z,29.5
2023-05-22T14:19:50.614Z,29.5
2023-05-22T14:21:14.028Z,29.7
2023-05-22T14:22:37.425Z,29.7
2023-05-22T14:24:00.822Z,29.7
2023-05-22T14:25:24.250Z,29.6
2023-05-22T14:26:47.648Z,29.6
2023-05-22T14:28:11.050Z,29.6
2023-05-22T14:29:34.474Z,29.5
2023-05-22T14:30:57.875Z,29.4
2023-05-22T14:32:21.279Z,29.4
2023-05-22T14:33:43.721Z,29.3
2023-05-22T14:35:07.129Z,29.3
2023-05-22T14:36:30.523Z,29.4
2023-05-22T14:37:53.932Z,29.3
2023-05-22T14:39:17.362Z,29.1
2023-05-22T14:40:40.759Z,29.2
2023-05-22T14:42:04.161Z,29.1
2023-05-22T14:43:27.579Z,29.1
2023-05-22T14:44:50.979Z,29.1
2023-05-22T14:46:14.396Z,28.9
2023-05-22T14:47:37.812Z,28.8
2023-05-22T14:49:01.214Z,28.6
2023-05-22T14:50:24.615Z,28.5
2023-05-22T14:51:47.041Z,28.5
2023-05-22T14:53:10.453Z,28.5
2023-05-22T14:54:33.868Z,28.5
2023-05-22T14:55:57.270Z,28.4
2023-05-22T14:57:20.675Z,28.4
2023-05-22T14:58:44.097Z,28.4
2023-05-22T15:00:07.497Z,28.3
2023-05-22T15:01:30.904Z,28.3
2023-05-22T15:02:54.325Z,28.2
2023-05-22T15:04:17.721Z,28.2
2023-05-22T15:05:41.146Z,28.2
2023-05-22T15:07:04.541Z,28.3
2023-05-22T15:08:27.947Z,28.2
2023-05-22T15:09:50.373Z,28.1
2023-05-22T15:11:13.796Z,28.1
2023-05-22T15:12:37.190Z,28
2023-05-22T15:14:00.602Z,28
2023-05-22T15:15:24.014Z,27.9
2023-05-22T15:16:47.420Z,27.8
2023-05-22T15:18:10.823Z,27.8
2023-05-22T15:19:34.234Z,27.7
2023-05-22T15:20:57.631Z,27.6
2023-05-22T15:22:21.052Z,27.7
2023-05-22T15:23:44.460Z,27.7
2023-05-22T15:25:07.859Z,27.8
2023-05-22T15:26:31.282Z,27.8
2023-05-22T15:27:53.709Z,27.8
2023-05-22T15:29:17.104Z,27.9
2023-05-22T15:30:40.528Z,27.9
2023-05-22T15:32:03.937Z,27.9
2023-05-22T15:33:27.348Z,27.8
2023-05-22T15:34:50.734Z,27.8
2023-05-22T15:36:14.155Z,27.8
2023-05-22T15:37:37.565Z,27.8
2023-05-22T15:39:00.977Z,27.8
2023-05-22T15:40:24.385Z,27.7
2023-05-22T15:41:47.784Z,27.7
2023-05-22T15:43:11.206Z,27.7
2023-05-22T15:44:34.618Z,27.7
2023-05-22T15:45:57.030Z,27.6
2023-05-22T15:47:20.450Z,27.7
2023-05-22T15:48:43.846Z,27.6
2023-05-22T15:50:07.256Z,27.6
2023-05-22T15:51:30.678Z,27.5
2023-05-22T15:52:54.077Z,27.6
2023-05-22T15:54:17.489Z,27.6
2023-05-22T15:55:40.897Z,27.6
2023-05-22T15:57:04.301Z,27.6
2023-05-22T15:58:27.718Z,27.6
2023-05-22T15:59:51.130Z,27.5
2023-05-22T16:01:14.539Z,27.5
2023-05-22T16:02:37.930Z,27.6
2023-05-22T16:04:00.355Z,27.5
2023-05-22T16:05:23.765Z,27.4
2023-05-22T16:06:47.170Z,27.5
2023-05-22T16:08:10.596Z,27.4
2023-05-22T16:09:33.993Z,27.4
2023-05-22T16:10:57.397Z,27.4
2023-05-22T16:12:20.822Z,27.3
2023-05-22T16:13:44.215Z,27.3
2023-05-22T16:15:07.618Z,27.2
2023-05-22T16:16:31.039Z,27.2
2023-05-22T16:17:54.441Z,27.1
2023-05-22T16:19:17.853Z,27
2023-05-22T16:20:41.262Z,26.9
2023-05-22T16:22:03.685Z,26.8
2023-05-22T16:23:27.095Z,26.8
2023-05-22T16:24:50.508Z,26.8
2023-05-22T16:26:13.917Z,26.6
2023-05-22T16:27:37.321Z,26.7
2023-05-22T16:30:24.146Z,26.6
2023-05-22T16:31:47.551Z,26.6
2023-05-22T16:33:10.962Z,26.6
2023-05-22T16:34:34.370Z,26.6
2023-05-22T16:35:57.784Z,26.5
2023-05-22T16:37:21.192Z,26.6
2023-05-22T16:38:44.600Z,26.6
2023-05-22T16:40:07.029Z,26.5
2023-05-22T16:41:30.440Z,26.5
2023-05-22T16:42:53.832Z,26.5
2023-05-22T16:44:17.245Z,26.5
2023-05-22T16:45:40.655Z,26.5
2023-05-22T16:47:04.065Z,26.4
2023-05-22T16:48:27.463Z,26.5
2023-05-22T16:49:50.870Z,26.5
2023-05-22T16:51:14.292Z,26.4
2023-05-22T16:52:37.696Z,26.3
2023-05-22T16:54:01.094Z,26.2
2023-05-22T16:55:24.510Z,26.2
2023-05-22T16:56:47.913Z,26.1
2023-05-22T16:58:10.347Z,26.1
2023-05-22T16:59:33.742Z,26.1
2023-05-22T17:00:57.149Z,26
2023-05-22T17:02:20.555Z,26
2023-05-22T17:03:43.977Z,25.9
2023-05-22T17:05:07.379Z,25.9
2023-05-22T17:06:30.784Z,25.9
2023-05-22T17:07:54.194Z,25.8
2023-05-22T17:09:17.608Z,25.8
2023-05-22T17:10:41.016Z,25.7
2023-05-22T17:12:04.434Z,25.7
2023-05-22T17:13:27.826Z,25.7
2023-05-22T17:14:51.256Z,25.6
2023-05-22T17:16:13.663Z,25.6
2023-05-22T17:17:37.078Z,25.6
2023-05-22T17:19:00.490Z,25.5
2023-05-22T17:20:23.902Z,25.4
2023-05-22T17:21:47.308Z,25.4
2023-05-22T17:23:10.715Z,25.4
2023-05-22T17:24:33.155Z,25.4
2023-05-22T17:25:56.559Z,25.3
2023-05-22T17:27:19.971Z,25.3
2023-05-22T17:28:43.382Z,25.3
2023-05-22T17:30:06.773Z,25.3
2023-05-22T17:31:30.181Z,25.2
2023-05-22T17:32:53.591Z,25.2
2023-05-22T17:34:17.001Z,25.1
2023-05-22T17:35:40.417Z,25.1
2023-05-22T17:37:03.820Z,25
2023-05-22T17:38:27.234Z,25
2023-05-22T17:39:50.645Z,25
2023-05-22T17:41:14.044Z,25
2023-05-22T17:42:36.484Z,24.9
2023-05-22T17:43:59.890Z,24.9
2023-05-22T17:45:23.296Z,24.8
2023-05-22T17:46:46.703Z,24.8
2023-05-22T17:48:10.114Z,24.7
2023-05-22T17:49:33.523Z,24.7
2023-05-22T17:50:56.931Z,24.7
2023-05-22T17:52:20.340Z,24.6
2023-05-22T17:53:43.749Z,24.6
2023-05-22T17:55:07.151Z,24.6
2023-05-22T17:56:30.566Z,24.4
2023-05-22T17:57:53.983Z,24.4
2023-05-22T17:59:17.385Z,24.4
2023-05-22T18:00:39.801Z,24.3
2023-05-22T18:02:03.222Z,24.3
2023-05-22T18:03:26.613Z,24.2
2023-05-22T18:04:50.021Z,24.2
2023-05-22T18:06:13.436Z,24.1
2023-05-22T18:07:36.845Z,24.1
2023-05-22T18:09:00.248Z,24
2023-05-22T18:10:23.673Z,24
2023-05-22T18:11:47.080Z,23.9
2023-05-22T18:13:10.484Z,23.9
2023-05-22T18:14:33.889Z,23.8
2023-05-22T18:15:57.297Z,23.8
2023-05-22T18:17:20.701Z,23.7
2023-05-22T18:18:43.136Z,23.7
2023-05-22T18:20:06.544Z,23.7
2023-05-22T18:21:29.958Z,23.7
2023-05-22T18:22:53.359Z,23.6
2023-05-22T18:24:16.765Z,23.5
2023-05-22T18:25:40.172Z,23.5
2023-05-22T18:27:03.573Z,23.5
2023-05-22T18:28:26.983Z,23.4
2023-05-22T18:29:50.402Z,23.3
2023-05-22T18:31:13.817Z,23.3
2023-05-22T18:32:37.205Z,23.3
2023-05-22T18:34:00.631Z,23.2
2023-05-22T18:35:24.026Z,23.1
2023-05-22T18:36:46.453Z,23.1
2023-05-22T18:38:09.858Z,23.1
2023-05-22T18:39:33.272Z,23
2023-05-22T18:40:56.690Z,23.1
2023-05-22T18:42:20.085Z,23
2023-05-22T18:43:43.505Z,23
2023-05-22T18:45:06.915Z,22.9
2023-05-22T18:46:30.319Z,22.9
2023-05-22T18:47:53.721Z,22.9
2023-05-22T18:49:17.136Z,22.9
2023-05-22T18:50:40.549Z,22.8
2023-05-22T18:52:03.954Z,22.8
2023-05-22T18:53:27.354Z,22.7
2023-05-22T18:54:49.795Z,22.7
2023-05-22T18:56:13.189Z,22.7
2023-05-22T18:57:36.606Z,22.6
2023-05-22T18:59:00.010Z,22.6
2023-05-22T19:00:23.435Z,22.7
2023-05-22T19:01:46.835Z,22.5
2023-05-22T19:03:10.242Z,22.5
2023-05-22T19:04:33.665Z,22.5
2023-05-22T19:05:57.061Z,22.5
2023-05-22T19:07:20.469Z,22.4
2023-05-22T19:08:43.888Z,22.4
2023-05-22T19:10:07.290Z,22.3
2023-05-22T19:11:30.703Z,22.3
2023-05-22T19:12:53.117Z,22.2
2023-05-22T19:14:16.534Z,22.2
2023-05-22T19:15:39.949Z,22.2
2023-05-22T19:17:03.342Z,22.1
2023-05-22T19:18:26.771Z,22.1
2023-05-22T19:19:50.178Z,22.1
2023-05-22T19:21:13.572Z,22
2023-05-22T19:22:36.978Z,22.1
2023-05-22T19:24:00.409Z,22.1
2023-05-22T19:25:23.808Z,22
2023-05-22T19:26:47.211Z,21.9
2023-05-22T19:28:10.668Z,22
2023-05-22T19:29:34.046Z,21.9
2023-05-22T19:30:56.487Z,21.9
2023-05-22T19:32:19.925Z,21.8
2023-05-22T19:33:43.386Z,21.8
2023-05-22T19:35:06.840Z,21.8
2023-05-22T19:36:30.275Z,21.8
2023-05-22T19:37:53.737Z,21.7
2023-05-22T19:39:17.185Z,21.7
2023-05-22T19:40:40.641Z,21.8
2023-05-22T19:42:04.093Z,21.7
2023-05-22T19:43:27.547Z,21.7
2023-05-22T19:44:50.986Z,21.7
2023-05-22T19:46:14.457Z,21.7
2023-05-22T19:47:37.894Z,21.7
2023-05-22T19:49:00.356Z,21.6
2023-05-22T19:50:23.811Z,21.6
2023-05-22T19:51:47.272Z,21.6
2023-05-22T19:53:10.716Z,21.6
2023-05-22T19:54:34.161Z,21.6
2023-05-22T19:55:57.617Z,21.5
2023-05-22T19:57:21.071Z,21.6
2023-05-22T19:58:44.516Z,21.5
2023-05-22T20:00:07.976Z,21.5
2023-05-22T20:01:31.419Z,21.5
2023-05-22T20:02:54.883Z,21.6
2023-05-22T20:04:18.327Z,21.5
2023-05-22T20:05:41.787Z,21.5
2023-05-22T20:07:04.236Z,21.4
2023-05-22T20:08:27.685Z,21.5
2023-05-22T20:09:51.151Z,21.4
2023-05-22T20:11:14.604Z,21.4
2023-05-22T20:12:38.049Z,21.4
2023-05-22T20:14:01.501Z,21.4
2023-05-22T20:15:24.948Z,21.4
2023-05-22T20:16:48.397Z,21.4
2023-05-22T20:18:11.850Z,21.3
2023-05-22T20:19:35.300Z,21.3
2023-05-22T20:20:58.756Z,21.4
2023-05-22T20:22:22.000Z,21.4
2023-05-22T20:23:45.650Z,21.3
2023-05-22T20:25:08.118Z,21.3
2023-05-22T20:26:31.559Z,21.4
2023-05-22T20:27:55.016Z,21.4
2023-05-22T20:29:18.468Z,21.4
2023-05-22T20:30:41.919Z,21.4
2023-05-22T20:32:05.372Z,21.5
2023-05-22T20:33:28.818Z,21.3
2023-05-22T20:34:52.258Z,21.5
2023-05-22T20:36:15.716Z,21.4
2023-05-22T20:37:39.177Z,21.4
2023-05-22T20:39:02.615Z,21.3
2023-05-22T20:40:26.052Z,21.3
2023-05-22T20:41:49.520Z,21.3
2023-05-22T20:43:11.973Z,21.3
2023-05-22T20:44:35.422Z,21.2
2023-05-22T20:45:58.887Z,21.2
2023-05-22T20:47:22.324Z,21.1
2023-05-22T20:48:45.771Z,21.1
2023-05-22T20:50:09.219Z,21
2023-05-22T20:51:32.666Z,21
2023-05-22T20:52:56.127Z,21.1
2023-05-22T20:54:19.568Z,21
2023-05-22T20:55:43.028Z,21
2023-05-22T20:57:06.466Z,21
2023-05-22T20:58:29.918Z,21
2023-05-22T20:59:53.364Z,21
2023-05-22T21:01:15.837Z,20.9
2023-05-22T21:02:39.281Z,21
2023-05-22T21:04:02.733Z,20.9
2023-05-22T21:05:26.179Z,20.8
2023-05-22T21:06:49.645Z,20.9
2023-05-22T21:08:13.083Z,20.8
2023-05-22T21:09:36.533Z,20.8
2023-05-22T21:10:59.985Z,20.7
2023-05-22T21:12:23.425Z,20.7
2023-05-22T21:13:46.871Z,20.7
2023-05-22T21:15:10.321Z,20.7
2023-05-22T21:16:33.761Z,20.5
2023-05-22T21:17:57.227Z,20.5
2023-05-22T21:19:19.686Z,20.5
2023-05-22T21:20:43.138Z,20.4
2023-05-22T21:22:06.580Z,20.3
2023-05-22T21:23:30.036Z,20.3
2023-05-22T21:24:53.475Z,20.4
2023-05-22T21:26:16.937Z,20.3
2023-05-22T21:27:40.371Z,20.2
2023-05-22T21:30:27.283Z,20.3
2023-05-22T21:31:50.726Z,20.1
2023-05-22T21:33:14.173Z,20.2
2023-05-22T21:34:37.631Z,20.1
2023-05-22T21:36:01.063Z,20
2023-05-22T21:37:23.540Z,20
2023-05-22T21:38:46.992Z,20
2023-05-22T21:40:10.443Z,19.9
2023-05-22T21:41:33.884Z,19.9
2023-05-22T21:42:57.341Z,19.9
2023-05-22T21:44:20.788Z,19.9
2023-05-22T21:45:44.227Z,19.8
2023-05-22T21:47:07.684Z,19.8
2023-05-22T21:48:31.132Z,19.8
2023-05-22T21:49:54.588Z,19.8
2023-05-22T21:51:18.026Z,19.8
2023-05-22T21:52:41.481Z,19.8
2023-05-22T21:54:04.934Z,19.9
2023-05-22T21:55:27.404Z,19.8
2023-05-22T21:56:50.834Z,19.9
2023-05-22T21:58:14.299Z,19.9
2023-05-22T21:59:37.737Z,19.9
2023-05-22T22:01:01.176Z,19.9
2023-05-22T22:02:24.638Z,20
2023-05-22T22:03:47.103Z,19.9
2023-05-22T22:05:10.551Z,19.9
2023-05-22T22:06:34.007Z,19.8
2023-05-22T22:07:57.446Z,20
2023-05-22T22:09:20.913Z,19.9
2023-05-22T22:10:44.358Z,19.9
2023-05-22T22:12:07.809Z,19.9
2023-05-22T22:13:31.261Z,19.9
2023-05-22T22:14:54.708Z,19.9
2023-05-22T22:16:18.143Z,19.9
2023-05-22T22:17:41.592Z,19.9
2023-05-22T22:19:05.040Z,19.9
2023-05-22T22:20:28.507Z,19.9
2023-05-22T22:21:50.960Z,19.9
2023-05-22T22:23:14.423Z,19.8
2023-05-22T22:24:37.863Z,19.8
2023-05-22T22:26:01.327Z,19.8
2023-05-22T22:27:24.754Z,19.9
2023-05-22T22:28:48.217Z,19.8
2023-05-22T22:30:11.662Z,19.8
2023-05-22T22:31:35.117Z,19.8
2023-05-22T22:32:58.559Z,19.7
2023-05-22T22:34:22.009Z,19.7
2023-05-22T22:35:45.467Z,19.8
2023-05-22T22:37:08.902Z,19.7
2023-05-22T22:38:32.363Z,19.8
2023-05-22T22:39:54.820Z,19.7
2023-05-22T22:41:18.274Z,19.8
2023-05-22T22:42:41.715Z,19.8
2023-05-22T22:44:05.167Z,19.7
2023-05-22T22:45:28.631Z,19.7
2023-05-22T22:46:52.088Z,19.7
2023-05-22T22:48:15.533Z,19.6
2023-05-22T22:49:38.988Z,19.6
2023-05-22T22:51:02.432Z,19.6
2023-05-22T22:52:25.879Z,19.5
2023-05-22T22:53:49.331Z,19.5
2023-05-22T22:55:12.765Z,19.4
2023-05-22T23:10:36.078Z,19.4
2023-05-22T23:25:58.380Z,18.9
2023-05-22T23:41:21.697Z,18.6
2023-05-22T23:56:44.979Z,18.3
